createdAt,value
2017-07-03T00:00:00.803Z,4.85
2017-07-03T00:00:05.054Z,4.70
2017-07-03T00:00:10.075Z,4.75
2017-07-03T00:00:15.083Z,5.07
2017-07-03T00:00:19.327Z,5.20
2017-07-03T00:00:23.574Z,5.30
2017-07-03T00:00:28.577Z,5.23
2017-07-03T00:00:32.824Z,5.30
2017-07-03T00:00:37.077Z,5.20
2017-07-03T00:00:41.313Z,5.25
2017-07-03T00:00:45.586Z,5.20
2017-07-03T00:00:49.830Z,5.20
2017-07-03T00:00:54.063Z,5.35
2017-07-03T00:00:58.313Z,5.35
2017-07-03T00:01:02.544Z,5.30
2017-07-03T00:01:06.785Z,5.30
2017-07-03T00:01:11.052Z,5.15
2017-07-03T00:01:15.285Z,4.85
2017-07-03T00:01:19.546Z,4.73
2017-07-03T00:01:23.786Z,4.70
2017-07-03T00:01:28.798Z,4.80
2017-07-03T00:01:33.037Z,4.80
2017-07-03T00:01:37.269Z,4.80
2017-07-03T00:01:41.571Z,5.10
2017-07-03T00:01:45.817Z,5.10
2017-07-03T00:01:50.816Z,5.00
2017-07-03T00:01:55.074Z,4.67
2017-07-03T00:01:59.314Z,4.53
2017-07-03T00:02:03.567Z,4.50
2017-07-03T00:02:07.802Z,4.55
2017-07-03T00:02:12.061Z,4.70
2017-07-03T00:02:16.303Z,4.73
2017-07-03T00:02:20.545Z,4.85
2017-07-03T00:02:25.561Z,4.80
2017-07-03T00:02:30.561Z,4.73
2017-07-03T00:02:34.818Z,4.90
2017-07-03T00:02:39.054Z,4.75
2017-07-03T00:02:43.309Z,4.77
2017-07-03T00:02:47.550Z,4.90
2017-07-03T00:02:51.802Z,4.90
2017-07-03T00:02:56.063Z,4.80
2017-07-03T00:03:00.313Z,4.90
2017-07-03T00:03:04.638Z,4.95
2017-07-03T00:03:08.860Z,5.00
2017-07-03T00:03:13.878Z,5.00
2017-07-03T00:03:18.895Z,5.10
2017-07-03T00:03:23.150Z,5.13
2017-07-03T00:03:27.397Z,5.15
2017-07-03T00:03:31.642Z,4.90
2017-07-03T00:03:35.894Z,4.73
2017-07-03T00:03:40.162Z,4.70
2017-07-03T00:03:44.416Z,4.60
2017-07-03T00:03:49.428Z,4.65
2017-07-03T00:03:54.445Z,4.90
2017-07-03T00:03:59.454Z,4.83
2017-07-03T00:04:04.503Z,4.80
2017-07-03T00:04:08.755Z,4.80
2017-07-03T00:04:13.019Z,4.77
2017-07-03T00:04:17.268Z,4.60
2017-07-03T00:04:21.519Z,4.50
2017-07-03T00:04:25.760Z,4.50
2017-07-03T00:04:30.014Z,4.50
2017-07-03T00:04:34.309Z,4.50
2017-07-03T00:04:38.561Z,4.60
2017-07-03T00:04:42.812Z,4.50
2017-07-03T00:04:47.040Z,4.50
2017-07-03T00:04:51.303Z,4.25
2017-07-03T00:04:55.545Z,4.20
2017-07-03T00:04:59.814Z,4.20
2017-07-03T00:05:04.055Z,4.20
2017-07-03T00:05:08.285Z,4.20
2017-07-03T00:05:13.295Z,4.27
2017-07-03T00:05:17.534Z,4.30
2017-07-03T00:05:21.778Z,4.35
2017-07-03T00:05:26.052Z,4.40
2017-07-03T00:05:30.276Z,4.40
2017-07-03T00:05:34.512Z,4.50
2017-07-03T00:05:38.746Z,4.45
2017-07-03T00:05:42.972Z,4.50
2017-07-03T00:05:47.222Z,4.40
2017-07-03T00:05:51.483Z,4.57
2017-07-03T00:05:55.743Z,4.65
2017-07-03T00:05:59.972Z,4.70
2017-07-03T00:06:04.218Z,4.70
2017-07-03T00:06:08.475Z,4.73
2017-07-03T00:06:12.739Z,4.60
2017-07-03T00:06:16.987Z,4.70
2017-07-03T00:06:21.243Z,4.73
2017-07-03T00:06:25.501Z,4.70
2017-07-03T00:06:30.517Z,4.80
2017-07-03T00:06:35.522Z,4.80
2017-07-03T00:06:39.775Z,4.80
2017-07-03T00:06:44.072Z,4.80
2017-07-03T00:06:48.323Z,4.77
2017-07-03T00:06:52.584Z,4.55
2017-07-03T00:06:56.810Z,4.55
2017-07-03T00:07:01.073Z,4.70
2017-07-03T00:07:05.326Z,4.70
2017-07-03T00:07:09.566Z,4.65
2017-07-03T00:07:13.804Z,4.70
2017-07-03T00:07:18.059Z,4.70
2017-07-03T00:07:22.296Z,4.75
2017-07-03T00:07:26.530Z,4.60
2017-07-03T00:07:30.775Z,4.50
2017-07-03T00:07:35.022Z,4.63
2017-07-03T00:07:39.271Z,4.90
2017-07-03T00:07:43.498Z,4.90
2017-07-03T00:07:47.744Z,4.90
2017-07-03T00:07:52.007Z,5.00
2017-07-03T00:07:56.232Z,5.00
2017-07-03T00:08:01.245Z,4.75
2017-07-03T00:08:06.265Z,4.70
2017-07-03T00:08:11.269Z,4.63
2017-07-03T00:08:15.522Z,4.57
2017-07-03T00:08:19.760Z,4.43
2017-07-03T00:08:24.032Z,4.45
2017-07-03T00:08:28.249Z,4.50
2017-07-03T00:08:32.530Z,4.40
2017-07-03T00:08:36.764Z,4.20
2017-07-03T00:08:41.002Z,4.05
2017-07-03T00:08:45.252Z,4.30
2017-07-03T00:08:49.499Z,4.25
2017-07-03T00:08:54.499Z,4.30
2017-07-03T00:08:59.502Z,4.40
2017-07-03T00:09:03.759Z,4.40
2017-07-03T00:09:07.986Z,4.40
2017-07-03T00:09:12.217Z,4.55
2017-07-03T00:09:17.222Z,4.70
2017-07-03T00:09:21.483Z,4.70
2017-07-03T00:09:25.736Z,4.70
2017-07-03T00:09:30.752Z,4.70
2017-07-03T00:09:35.006Z,4.80
2017-07-03T00:09:39.255Z,4.80
2017-07-03T00:09:44.248Z,4.63
2017-07-03T00:09:48.492Z,4.57
2017-07-03T00:09:52.730Z,4.45
2017-07-03T00:09:56.958Z,4.30
2017-07-03T00:10:01.193Z,4.20
2017-07-03T00:10:05.451Z,4.20
2017-07-03T00:10:09.698Z,4.10
2017-07-03T00:10:13.942Z,4.00
2017-07-03T00:10:18.205Z,4.10
2017-07-03T00:10:22.470Z,4.10
2017-07-03T00:10:27.493Z,4.10
2017-07-03T00:10:32.493Z,4.10
2017-07-03T00:10:36.737Z,4.07
2017-07-03T00:10:40.956Z,4.10
2017-07-03T00:10:45.186Z,4.10
2017-07-03T00:10:49.424Z,4.20
2017-07-03T00:10:54.412Z,4.25
2017-07-03T00:10:58.647Z,4.50
2017-07-03T00:11:02.884Z,4.70
2017-07-03T00:11:07.105Z,4.80
2017-07-03T00:11:11.337Z,4.80
2017-07-03T00:11:16.343Z,4.80
2017-07-03T00:11:21.338Z,4.70
2017-07-03T00:11:25.603Z,4.80
2017-07-03T00:11:29.885Z,4.80
2017-07-03T00:11:34.116Z,4.80
2017-07-03T00:11:38.385Z,4.80
2017-07-03T00:11:42.622Z,4.75
2017-07-03T00:11:46.899Z,4.90
2017-07-03T00:11:51.136Z,4.80
2017-07-03T00:11:55.388Z,4.80
2017-07-03T00:11:59.620Z,4.55
2017-07-03T00:12:03.844Z,4.60
2017-07-03T00:12:08.110Z,4.70
2017-07-03T00:12:12.347Z,4.55
2017-07-03T00:12:16.583Z,4.50
2017-07-03T00:12:20.822Z,4.50
2017-07-03T00:12:25.048Z,4.50
2017-07-03T00:12:30.060Z,4.70
2017-07-03T00:12:34.315Z,4.83
2017-07-03T00:12:38.543Z,4.90
2017-07-03T00:12:42.796Z,4.97
2017-07-03T00:12:47.049Z,4.90
2017-07-03T00:12:51.299Z,4.90
2017-07-03T00:12:55.538Z,4.80
2017-07-03T00:12:59.814Z,4.80
2017-07-03T00:13:04.058Z,4.65
2017-07-03T00:13:09.077Z,4.60
2017-07-03T00:13:13.342Z,4.60
2017-07-03T00:13:17.561Z,4.63
2017-07-03T00:13:21.795Z,4.55
2017-07-03T00:13:26.048Z,4.45
2017-07-03T00:13:30.280Z,4.30
2017-07-03T00:13:34.546Z,4.27
2017-07-03T00:13:38.783Z,4.30
2017-07-03T00:13:43.796Z,4.30
2017-07-03T00:13:48.021Z,4.33
2017-07-03T00:13:52.252Z,4.40
2017-07-03T00:13:56.509Z,4.50
2017-07-03T00:14:01.534Z,4.50
2017-07-03T00:14:06.556Z,4.60
2017-07-03T00:14:11.605Z,4.60
2017-07-03T00:14:15.846Z,4.60
2017-07-03T00:14:20.089Z,4.65
2017-07-03T00:14:24.333Z,4.80
2017-07-03T00:14:28.576Z,4.90
2017-07-03T00:14:32.872Z,4.75
2017-07-03T00:14:37.101Z,4.60
2017-07-03T00:14:41.363Z,4.53
2017-07-03T00:14:46.380Z,4.45
2017-07-03T00:14:51.640Z,4.60
2017-07-03T00:14:55.870Z,4.40
2017-07-03T00:15:00.356Z,4.30
2017-07-03T00:15:04.578Z,4.30
2017-07-03T00:15:08.839Z,4.40
2017-07-03T00:15:13.068Z,4.40
2017-07-03T00:15:17.316Z,4.50
2017-07-03T00:15:21.565Z,4.65
2017-07-03T00:15:25.833Z,4.80
2017-07-03T00:15:30.084Z,4.80
2017-07-03T00:15:34.331Z,4.70
2017-07-03T00:15:38.574Z,4.80
2017-07-03T00:15:42.818Z,4.85
2017-07-03T00:15:47.073Z,4.80
2017-07-03T00:15:51.345Z,4.60
2017-07-03T00:15:55.574Z,4.70
2017-07-03T00:15:59.813Z,4.70
2017-07-03T00:16:04.060Z,4.67
2017-07-03T00:16:08.302Z,4.50
2017-07-03T00:16:12.535Z,4.40
2017-07-03T00:16:16.798Z,4.30
2017-07-03T00:16:21.029Z,4.15
2017-07-03T00:16:25.278Z,4.00
2017-07-03T00:16:29.505Z,3.95
2017-07-03T00:16:33.744Z,3.90
2017-07-03T00:16:37.981Z,3.80
2017-07-03T00:16:42.216Z,3.75
2017-07-03T00:16:46.497Z,4.05
2017-07-03T00:16:50.761Z,4.30
2017-07-03T00:16:54.997Z,4.60
2017-07-03T00:16:59.232Z,5.00
2017-07-03T00:17:03.473Z,5.00
2017-07-03T00:17:07.726Z,5.03
2017-07-03T00:17:11.984Z,5.15
2017-07-03T00:17:16.212Z,5.50
2017-07-03T00:17:20.449Z,5.60
2017-07-03T00:17:24.694Z,5.67
2017-07-03T00:17:28.951Z,5.80
2017-07-03T00:17:33.184Z,6.00
2017-07-03T00:17:37.440Z,6.10
2017-07-03T00:17:41.668Z,6.20
2017-07-03T00:17:45.905Z,5.85
2017-07-03T00:17:50.137Z,5.70
2017-07-03T00:17:54.402Z,5.40
2017-07-03T00:17:58.645Z,5.05
2017-07-03T00:18:02.883Z,5.20
2017-07-03T00:18:07.271Z,5.20
2017-07-03T00:18:11.507Z,5.27
2017-07-03T00:18:15.763Z,5.15
2017-07-03T00:18:20.017Z,5.10
2017-07-03T00:18:24.279Z,5.00
2017-07-03T00:18:28.535Z,5.00
2017-07-03T00:18:32.760Z,4.85
2017-07-03T00:18:37.011Z,4.80
2017-07-03T00:18:42.013Z,4.73
2017-07-03T00:18:46.269Z,4.80
2017-07-03T00:18:50.506Z,4.85
2017-07-03T00:18:54.737Z,5.00
2017-07-03T00:18:58.994Z,5.00
2017-07-03T00:19:03.251Z,5.00
2017-07-03T00:19:07.495Z,5.10
2017-07-03T00:19:11.737Z,5.20
2017-07-03T00:19:16.748Z,5.20
2017-07-03T00:19:21.744Z,5.20
2017-07-03T00:19:26.010Z,5.23
2017-07-03T00:19:30.295Z,5.30
2017-07-03T00:19:35.324Z,5.40
2017-07-03T00:19:39.579Z,5.50
2017-07-03T00:19:43.826Z,5.70
2017-07-03T00:19:48.085Z,5.70
2017-07-03T00:19:53.081Z,5.60
2017-07-03T00:19:57.317Z,5.57
2017-07-03T00:20:01.573Z,5.50
2017-07-03T00:20:05.827Z,5.50
2017-07-03T00:20:10.073Z,5.30
2017-07-03T00:20:14.318Z,5.20
2017-07-03T00:20:18.570Z,5.10
2017-07-03T00:20:22.810Z,5.10
2017-07-03T00:20:27.805Z,5.05
2017-07-03T00:20:32.049Z,5.00
2017-07-03T00:20:37.050Z,4.90
2017-07-03T00:20:42.064Z,4.70
2017-07-03T00:20:47.075Z,4.63
2017-07-03T00:20:52.129Z,4.67
2017-07-03T00:20:56.357Z,4.70
2017-07-03T00:21:00.593Z,4.70
2017-07-03T00:21:05.614Z,4.80
2017-07-03T00:21:10.618Z,4.70
2017-07-03T00:21:15.617Z,4.60
2017-07-03T00:21:19.862Z,4.70
2017-07-03T00:21:24.115Z,4.80
2017-07-03T00:21:28.363Z,4.95
2017-07-03T00:21:32.639Z,5.13
2017-07-03T00:21:36.915Z,5.20
2017-07-03T00:21:41.140Z,5.20
2017-07-03T00:21:46.185Z,5.10
2017-07-03T00:21:50.464Z,5.07
2017-07-03T00:21:54.680Z,4.95
2017-07-03T00:21:58.942Z,4.80
2017-07-03T00:22:03.179Z,4.80
2017-07-03T00:22:07.428Z,4.87
2017-07-03T00:22:11.662Z,4.90
2017-07-03T00:22:16.687Z,4.80
2017-07-03T00:22:21.686Z,4.87
2017-07-03T00:22:26.690Z,4.67
2017-07-03T00:22:30.917Z,4.30
2017-07-03T00:22:35.929Z,4.30
2017-07-03T00:22:40.924Z,4.40
2017-07-03T00:22:45.194Z,4.80
2017-07-03T00:22:49.455Z,4.97
2017-07-03T00:22:54.455Z,5.00
2017-07-03T00:22:58.697Z,5.00
2017-07-03T00:23:02.966Z,5.10
2017-07-03T00:23:07.977Z,5.03
2017-07-03T00:23:12.237Z,5.10
2017-07-03T00:23:16.482Z,5.10
2017-07-03T00:23:21.499Z,5.10
2017-07-03T00:23:26.511Z,5.10
2017-07-03T00:23:30.736Z,5.10
2017-07-03T00:23:34.996Z,5.10
2017-07-03T00:23:39.242Z,5.05
2017-07-03T00:23:43.485Z,4.75
2017-07-03T00:23:47.708Z,4.70
2017-07-03T00:23:51.969Z,4.53
2017-07-03T00:23:56.194Z,4.60
2017-07-03T00:24:00.436Z,4.60
2017-07-03T00:24:05.435Z,4.60
2017-07-03T00:24:09.697Z,4.50
2017-07-03T00:24:13.955Z,4.60
2017-07-03T00:24:18.209Z,4.60
2017-07-03T00:24:22.442Z,4.50
2017-07-03T00:24:27.433Z,4.60
2017-07-03T00:24:31.695Z,4.60
2017-07-03T00:24:35.946Z,4.60
2017-07-03T00:24:40.192Z,4.50
2017-07-03T00:24:44.437Z,4.60
2017-07-03T00:24:48.668Z,4.43
2017-07-03T00:24:52.923Z,4.40
2017-07-03T00:24:57.167Z,4.40
2017-07-03T00:25:02.184Z,4.40
2017-07-03T00:25:06.415Z,4.70
2017-07-03T00:25:10.637Z,4.70
2017-07-03T00:25:14.896Z,4.55
2017-07-03T00:25:19.876Z,4.55
2017-07-03T00:25:24.130Z,4.60
2017-07-03T00:25:28.375Z,4.60
2017-07-03T00:25:32.633Z,4.60
2017-07-03T00:25:36.878Z,4.60
2017-07-03T00:25:41.128Z,4.60
2017-07-03T00:25:45.374Z,4.70
2017-07-03T00:25:49.632Z,4.80
2017-07-03T00:25:53.872Z,4.85
2017-07-03T00:25:58.130Z,4.80
2017-07-03T00:26:02.364Z,4.60
2017-07-03T00:26:06.611Z,4.45
2017-07-03T00:26:10.837Z,4.55
2017-07-03T00:26:15.072Z,4.75
2017-07-03T00:26:19.331Z,4.73
2017-07-03T00:26:23.568Z,4.60
2017-07-03T00:26:27.831Z,4.70
2017-07-03T00:26:32.095Z,4.70
2017-07-03T00:26:37.108Z,4.70
2017-07-03T00:26:41.354Z,4.80
2017-07-03T00:26:45.616Z,4.70
2017-07-03T00:26:49.873Z,4.70
2017-07-03T00:26:54.127Z,4.75
2017-07-03T00:26:58.401Z,4.83
2017-07-03T00:27:02.638Z,4.90
2017-07-03T00:27:06.883Z,4.90
2017-07-03T00:27:11.124Z,4.83
2017-07-03T00:27:15.357Z,4.70
2017-07-03T00:27:19.608Z,4.70
2017-07-03T00:27:24.623Z,4.85
2017-07-03T00:27:29.640Z,4.87
2017-07-03T00:27:34.649Z,4.80
2017-07-03T00:27:38.898Z,4.80
2017-07-03T00:27:43.149Z,4.83
2017-07-03T00:27:47.397Z,5.00
2017-07-03T00:27:51.636Z,5.00
2017-07-03T00:27:55.868Z,5.20
2017-07-03T00:28:00.156Z,5.30
2017-07-03T00:28:04.366Z,5.60
2017-07-03T00:28:09.379Z,5.50
2017-07-03T00:28:14.383Z,5.50
2017-07-03T00:28:18.635Z,5.57
2017-07-03T00:28:22.885Z,5.63
2017-07-03T00:28:27.127Z,5.80
2017-07-03T00:28:31.385Z,5.80
2017-07-03T00:28:35.604Z,5.80
2017-07-03T00:28:40.626Z,5.77
2017-07-03T00:28:44.896Z,5.70
2017-07-03T00:28:49.138Z,5.70
2017-07-03T00:28:53.395Z,5.55
2017-07-03T00:28:57.654Z,5.30
2017-07-03T00:29:01.910Z,5.15
2017-07-03T00:29:06.912Z,5.10
2017-07-03T00:29:11.149Z,5.07
2017-07-03T00:29:15.416Z,5.10
2017-07-03T00:29:19.657Z,4.90
2017-07-03T00:29:23.937Z,4.80
2017-07-03T00:29:28.945Z,4.85
2017-07-03T00:29:33.176Z,4.87
2017-07-03T00:29:37.417Z,4.80
2017-07-03T00:29:41.694Z,4.90
2017-07-03T00:29:45.925Z,4.90
2017-07-03T00:29:50.182Z,4.80
2017-07-03T00:29:54.443Z,5.07
2017-07-03T00:29:58.697Z,5.25
2017-07-03T00:30:02.942Z,5.30
2017-07-03T00:30:07.169Z,5.30
2017-07-03T00:30:11.429Z,5.43
2017-07-03T00:30:15.668Z,5.45
2017-07-03T00:30:19.900Z,5.65
2017-07-03T00:30:24.151Z,5.65
2017-07-03T00:30:29.163Z,5.67
2017-07-03T00:30:34.184Z,5.70
2017-07-03T00:30:39.185Z,5.63
2017-07-03T00:30:43.453Z,5.50
2017-07-03T00:30:47.731Z,5.50
2017-07-03T00:30:51.952Z,5.50
2017-07-03T00:30:56.203Z,5.40
2017-07-03T00:31:01.222Z,5.20
2017-07-03T00:31:05.476Z,5.50
2017-07-03T00:31:09.724Z,5.60
2017-07-03T00:31:13.944Z,5.50
2017-07-03T00:31:18.207Z,5.47
2017-07-03T00:31:22.460Z,5.20
2017-07-03T00:31:26.699Z,5.20
2017-07-03T00:31:30.948Z,5.00
2017-07-03T00:31:35.194Z,5.07
2017-07-03T00:31:39.440Z,5.10
2017-07-03T00:31:43.694Z,5.10
2017-07-03T00:31:47.949Z,5.20
2017-07-03T00:31:52.188Z,5.25
2017-07-03T00:31:56.431Z,5.10
2017-07-03T00:32:01.696Z,5.10
2017-07-03T00:32:05.931Z,4.90
2017-07-03T00:32:10.238Z,4.65
2017-07-03T00:32:14.482Z,4.50
2017-07-03T00:32:18.723Z,4.50
2017-07-03T00:32:22.994Z,4.50
2017-07-03T00:32:27.235Z,4.45
2017-07-03T00:32:31.469Z,4.55
2017-07-03T00:32:35.759Z,4.80
2017-07-03T00:32:40.768Z,4.80
2017-07-03T00:32:45.768Z,4.90
2017-07-03T00:32:50.814Z,4.80
2017-07-03T00:32:55.048Z,4.80
2017-07-03T00:32:59.300Z,4.80
2017-07-03T00:33:04.288Z,4.70
2017-07-03T00:33:08.544Z,4.70
2017-07-03T00:33:12.790Z,5.13
2017-07-03T00:33:17.158Z,5.25
2017-07-03T00:33:21.385Z,5.35
2017-07-03T00:33:25.636Z,5.67
2017-07-03T00:33:29.888Z,5.80
2017-07-03T00:33:34.143Z,5.60
2017-07-03T00:33:38.422Z,5.50
2017-07-03T00:33:43.438Z,5.43
2017-07-03T00:33:48.436Z,5.30
2017-07-03T00:33:52.682Z,5.47
2017-07-03T00:33:56.930Z,5.50
2017-07-03T00:34:01.175Z,5.60
2017-07-03T00:34:05.397Z,5.60
2017-07-03T00:34:09.648Z,5.55
2017-07-03T00:34:13.915Z,5.30
2017-07-03T00:34:18.149Z,5.40
2017-07-03T00:34:22.396Z,5.30
2017-07-03T00:34:26.645Z,5.10
2017-07-03T00:34:30.877Z,5.00
2017-07-03T00:34:35.185Z,4.95
2017-07-03T00:34:39.420Z,5.03
2017-07-03T00:34:43.657Z,5.20
2017-07-03T00:34:48.695Z,5.15
2017-07-03T00:34:52.934Z,5.00
2017-07-03T00:34:57.172Z,5.10
2017-07-03T00:35:01.415Z,5.10
2017-07-03T00:35:05.691Z,5.10
2017-07-03T00:35:09.921Z,5.10
2017-07-03T00:35:14.175Z,5.13
2017-07-03T00:35:18.445Z,4.95
2017-07-03T00:35:22.690Z,4.90
2017-07-03T00:35:26.935Z,4.90
2017-07-03T00:35:31.169Z,4.83
2017-07-03T00:35:35.402Z,4.80
2017-07-03T00:35:39.636Z,4.80
2017-07-03T00:35:43.866Z,4.60
2017-07-03T00:35:48.140Z,4.60
2017-07-03T00:35:52.401Z,4.60
2017-07-03T00:35:56.636Z,4.40
2017-07-03T00:36:00.917Z,4.30
2017-07-03T00:36:05.154Z,4.30
2017-07-03T00:36:09.373Z,4.30
2017-07-03T00:36:15.094Z,4.35
2017-07-03T00:36:19.354Z,4.47
2017-07-03T00:36:23.606Z,4.60
2017-07-03T00:36:27.838Z,4.50
2017-07-03T00:36:32.069Z,4.70
2017-07-03T00:36:36.310Z,4.70
2017-07-03T00:36:40.538Z,4.55
2017-07-03T00:36:44.765Z,4.60
2017-07-03T00:36:49.028Z,4.70
2017-07-03T00:36:53.334Z,4.70
2017-07-03T00:36:57.551Z,4.85
2017-07-03T00:37:01.805Z,4.90
2017-07-03T00:37:06.043Z,4.85
2017-07-03T00:37:10.269Z,4.90
2017-07-03T00:37:14.502Z,4.80
2017-07-03T00:37:18.760Z,4.73
2017-07-03T00:37:31.643Z,4.70
2017-07-03T00:37:40.129Z,4.75
2017-07-03T00:38:01.541Z,4.80
2017-07-03T00:38:05.851Z,4.90
2017-07-03T00:38:10.091Z,4.70
2017-07-03T00:38:20.899Z,4.80
2017-07-03T00:38:32.729Z,4.80
2017-07-03T00:38:36.984Z,4.90
2017-07-03T00:38:41.222Z,4.90
2017-07-03T00:38:45.481Z,4.80
2017-07-03T00:38:49.708Z,4.70
2017-07-03T00:38:53.953Z,4.85
2017-07-03T00:38:58.210Z,4.80
2017-07-03T00:39:02.445Z,4.80
2017-07-03T00:39:06.760Z,4.70
2017-07-03T00:39:11.014Z,4.70
2017-07-03T00:39:15.270Z,4.70
2017-07-03T00:39:19.518Z,4.60
2017-07-03T00:39:23.897Z,4.70
2017-07-03T00:39:30.522Z,4.70
2017-07-03T00:39:44.490Z,4.55
2017-07-03T00:39:48.734Z,4.60
2017-07-03T00:39:52.967Z,4.37
2017-07-03T00:39:57.204Z,4.40
2017-07-03T00:40:01.454Z,4.40
2017-07-03T00:40:05.677Z,4.40
2017-07-03T00:40:09.912Z,4.77
2017-07-03T00:40:14.160Z,4.85
2017-07-03T00:40:18.402Z,4.85
2017-07-03T00:40:22.629Z,4.80
2017-07-03T00:40:26.879Z,4.70
2017-07-03T00:40:31.109Z,4.80
2017-07-03T00:40:35.351Z,4.95
2017-07-03T00:40:39.586Z,4.85
2017-07-03T00:40:43.841Z,4.90
2017-07-03T00:40:48.150Z,5.05
2017-07-03T00:40:52.377Z,5.15
2017-07-03T00:40:56.608Z,5.30
2017-07-03T00:41:00.851Z,5.40
2017-07-03T00:41:05.098Z,5.40
2017-07-03T00:41:09.339Z,5.15
2017-07-03T00:41:13.569Z,5.00
2017-07-03T00:41:17.827Z,5.00
2017-07-03T00:41:22.052Z,5.00
2017-07-03T00:41:26.286Z,5.05
2017-07-03T00:41:30.530Z,5.20
2017-07-03T00:41:34.783Z,5.20
2017-07-03T00:41:39.026Z,5.20
2017-07-03T00:41:43.274Z,5.25
2017-07-03T00:41:47.542Z,5.30
2017-07-03T00:41:51.812Z,5.40
2017-07-03T00:41:56.048Z,5.35
2017-07-03T00:42:00.297Z,5.30
2017-07-03T00:42:04.715Z,5.47
2017-07-03T00:42:08.949Z,5.55
2017-07-03T00:42:13.189Z,5.65
2017-07-03T00:42:17.450Z,5.80
2017-07-03T00:42:21.691Z,6.00
2017-07-03T00:42:25.916Z,6.00
2017-07-03T00:42:30.166Z,5.90
2017-07-03T00:42:34.422Z,5.90
2017-07-03T00:42:38.712Z,5.80
2017-07-03T00:42:42.966Z,5.80
2017-07-03T00:42:47.200Z,5.80
2017-07-03T00:42:51.456Z,5.67
2017-07-03T00:42:55.685Z,5.40
2017-07-03T00:42:59.996Z,5.45
2017-07-03T00:43:04.287Z,5.37
2017-07-03T00:43:08.557Z,5.25
2017-07-03T00:43:12.807Z,5.10
2017-07-03T00:43:17.038Z,4.90
2017-07-03T00:43:21.291Z,4.77
2017-07-03T00:43:25.624Z,4.60
2017-07-03T00:43:29.836Z,4.60
2017-07-03T00:43:34.079Z,4.50
2017-07-03T00:43:38.310Z,4.60
2017-07-03T00:43:42.534Z,4.60
2017-07-03T00:43:46.759Z,4.60
2017-07-03T00:43:51.070Z,4.60
2017-07-03T00:43:55.311Z,4.70
2017-07-03T00:43:59.557Z,4.60
2017-07-03T00:44:03.799Z,4.60
2017-07-03T00:44:08.045Z,4.77
2017-07-03T00:44:12.302Z,4.85
2017-07-03T00:44:16.547Z,5.25
2017-07-03T00:44:20.803Z,5.40
2017-07-03T00:44:25.051Z,5.40
2017-07-03T00:44:29.284Z,5.40
2017-07-03T00:44:33.656Z,5.50
2017-07-03T00:44:37.923Z,5.53
2017-07-03T00:44:42.156Z,5.50
2017-07-03T00:44:46.389Z,5.50
2017-07-03T00:44:50.636Z,5.60
2017-07-03T00:44:54.877Z,5.50
2017-07-03T00:44:59.113Z,5.40
2017-07-03T00:45:03.345Z,5.50
2017-07-03T00:45:08.361Z,5.50
2017-07-03T00:45:13.374Z,5.37
2017-07-03T00:45:18.373Z,4.90
2017-07-03T00:45:22.686Z,5.00
2017-07-03T00:45:26.940Z,5.10
2017-07-03T00:45:31.191Z,5.00
2017-07-03T00:45:35.448Z,5.00
2017-07-03T00:45:39.707Z,5.17
2017-07-03T00:45:43.959Z,5.20
2017-07-03T00:45:48.210Z,5.10
2017-07-03T00:45:53.206Z,5.15
2017-07-03T00:45:57.441Z,5.20
2017-07-03T00:46:01.699Z,5.20
2017-07-03T00:46:05.944Z,5.25
2017-07-03T00:46:10.194Z,5.45
2017-07-03T00:46:14.553Z,5.70
2017-07-03T00:46:18.800Z,5.75
2017-07-03T00:46:23.817Z,5.75
2017-07-03T00:46:28.049Z,5.73
2017-07-03T00:46:32.307Z,5.77
2017-07-03T00:46:36.571Z,5.65
2017-07-03T00:46:40.823Z,5.60
2017-07-03T00:46:45.058Z,5.60
2017-07-03T00:46:49.318Z,5.60
2017-07-03T00:46:53.568Z,5.60
2017-07-03T00:46:57.818Z,5.60
2017-07-03T00:47:02.171Z,5.60
2017-07-03T00:47:07.158Z,5.43
2017-07-03T00:47:12.174Z,5.20
2017-07-03T00:47:17.157Z,5.20
2017-07-03T00:47:21.464Z,5.00
2017-07-03T00:47:25.705Z,5.00
2017-07-03T00:47:29.972Z,4.90
2017-07-03T00:47:34.229Z,4.90
2017-07-03T00:47:38.508Z,4.80
2017-07-03T00:47:42.740Z,4.70
2017-07-03T00:47:46.973Z,4.70
2017-07-03T00:47:51.221Z,4.75
2017-07-03T00:47:55.457Z,4.80
2017-07-03T00:47:59.687Z,4.85
2017-07-03T00:48:04.690Z,5.03
2017-07-03T00:48:08.928Z,5.30
2017-07-03T00:48:13.169Z,5.10
2017-07-03T00:48:18.259Z,5.10
2017-07-03T00:48:22.493Z,5.20
2017-07-03T00:48:26.729Z,5.30
2017-07-03T00:48:32.417Z,5.30
2017-07-03T00:48:36.656Z,5.37
2017-07-03T00:48:41.018Z,5.40
2017-07-03T00:48:45.288Z,5.40
2017-07-03T00:48:49.543Z,5.45
2017-07-03T00:48:53.786Z,5.20
2017-07-03T00:48:58.059Z,5.20
2017-07-03T00:49:02.302Z,4.90
2017-07-03T00:49:06.515Z,4.75
2017-07-03T00:49:10.771Z,4.70
2017-07-03T00:49:15.029Z,4.80
2017-07-03T00:49:19.258Z,4.80
2017-07-03T00:49:24.266Z,4.80
2017-07-03T00:49:28.550Z,4.70
2017-07-03T00:49:32.798Z,4.67
2017-07-03T00:49:37.041Z,4.60
2017-07-03T00:49:41.269Z,4.60
2017-07-03T00:49:45.500Z,4.60
2017-07-03T00:49:49.782Z,4.50
2017-07-03T00:49:54.011Z,4.60
2017-07-03T00:49:58.241Z,4.60
2017-07-03T00:50:02.518Z,4.60
2017-07-03T00:50:06.738Z,4.50
2017-07-03T00:50:10.969Z,4.45
2017-07-03T00:50:15.222Z,4.50
2017-07-03T00:50:19.469Z,4.43
2017-07-03T00:50:24.481Z,4.50
2017-07-03T00:50:28.735Z,4.50
2017-07-03T00:50:47.138Z,5.40
2017-07-03T00:50:52.137Z,5.53
2017-07-03T00:50:57.141Z,5.60
2017-07-03T00:51:01.402Z,5.60
2017-07-03T00:51:05.701Z,5.65
2017-07-03T00:51:10.706Z,5.70
2017-07-03T00:51:15.696Z,5.60
2017-07-03T00:51:20.010Z,5.70
2017-07-03T00:51:25.003Z,5.60
2017-07-03T00:51:29.254Z,5.53
2017-07-03T00:51:33.503Z,5.50
2017-07-03T00:51:37.740Z,5.10
2017-07-03T00:51:42.023Z,5.10
2017-07-03T00:51:47.022Z,5.27
2017-07-03T00:51:51.265Z,5.10
2017-07-03T00:51:55.541Z,5.10
2017-07-03T00:52:00.536Z,5.20
2017-07-03T00:52:04.781Z,5.30
2017-07-03T00:52:09.047Z,5.30
2017-07-03T00:52:13.303Z,5.40
2017-07-03T00:52:17.595Z,5.55
2017-07-03T00:52:21.829Z,5.40
2017-07-03T00:52:26.086Z,5.50
2017-07-03T00:52:30.333Z,5.40
2017-07-03T00:52:34.581Z,5.40
2017-07-03T00:52:39.838Z,5.37
2017-07-03T00:52:44.086Z,5.17
2017-07-03T00:52:49.097Z,5.05
2017-07-03T00:52:54.103Z,5.00
2017-07-03T00:52:58.351Z,4.90
2017-07-03T00:53:02.588Z,5.00
2017-07-03T00:53:06.847Z,4.87
2017-07-03T00:53:11.068Z,4.75
2017-07-03T00:53:15.304Z,4.55
2017-07-03T00:53:19.535Z,4.60
2017-07-03T00:53:23.780Z,4.77
2017-07-03T00:53:28.038Z,4.85
2017-07-03T00:53:32.363Z,4.90
2017-07-03T00:53:36.564Z,4.80
2017-07-03T00:53:40.828Z,4.80
2017-07-03T00:53:45.824Z,4.75
2017-07-03T00:53:50.844Z,4.83
2017-07-03T00:53:55.090Z,4.97
2017-07-03T00:53:59.331Z,5.10
2017-07-03T00:54:03.581Z,5.03
2017-07-03T00:54:07.831Z,5.25
2017-07-03T00:54:12.082Z,5.30
2017-07-03T00:54:16.327Z,5.50
2017-07-03T00:54:20.616Z,5.57
2017-07-03T00:54:24.841Z,5.70
2017-07-03T00:54:29.088Z,5.80
2017-07-03T00:54:33.331Z,5.73
2017-07-03T00:54:37.592Z,5.95
2017-07-03T00:54:41.842Z,6.00
2017-07-03T00:54:46.863Z,6.20
2017-07-03T00:54:51.095Z,6.20
2017-07-03T00:54:55.336Z,6.00
2017-07-03T00:54:59.583Z,6.00
2017-07-03T00:55:04.599Z,6.15
2017-07-03T00:55:09.591Z,6.00
2017-07-03T00:55:13.846Z,6.10
2017-07-03T00:55:18.152Z,6.00
2017-07-03T00:55:22.385Z,5.80
2017-07-03T00:55:26.635Z,5.60
2017-07-03T00:55:30.865Z,5.80
2017-07-03T00:55:35.107Z,5.70
2017-07-03T00:55:40.135Z,5.70
2017-07-03T00:55:45.154Z,5.70
2017-07-03T00:55:49.407Z,5.50
2017-07-03T00:55:53.650Z,5.60
2017-07-03T00:55:58.661Z,5.50
2017-07-03T00:56:03.666Z,5.30
2017-07-03T00:56:08.676Z,5.30
2017-07-03T00:56:12.908Z,5.20
2017-07-03T00:56:17.177Z,5.30
2017-07-03T00:56:21.420Z,5.30
2017-07-03T00:56:25.656Z,5.30
2017-07-03T00:56:29.913Z,5.20
2017-07-03T00:56:34.169Z,5.20
2017-07-03T00:56:38.414Z,5.30
2017-07-03T00:56:42.637Z,5.40
2017-07-03T00:56:46.903Z,5.50
2017-07-03T00:56:51.919Z,5.60
2017-07-03T00:56:56.946Z,5.73
2017-07-03T00:57:01.199Z,5.80
2017-07-03T00:57:05.435Z,5.75
2017-07-03T00:57:10.444Z,5.60
2017-07-03T00:57:14.683Z,5.60
2017-07-03T00:57:18.918Z,5.60
2017-07-03T00:57:23.172Z,5.65
2017-07-03T00:57:27.419Z,5.70
2017-07-03T00:57:31.663Z,5.70
2017-07-03T00:57:35.892Z,5.70
2017-07-03T00:57:40.138Z,5.60
2017-07-03T00:57:44.379Z,5.60
2017-07-03T00:57:48.621Z,5.60
2017-07-03T00:57:52.892Z,5.60
2017-07-03T00:57:57.139Z,5.50
2017-07-03T00:58:01.394Z,5.65
2017-07-03T00:58:05.652Z,5.73
2017-07-03T00:58:10.686Z,5.90
2017-07-03T00:58:14.950Z,5.80
2017-07-03T00:58:19.169Z,5.70
2017-07-03T00:58:23.414Z,5.70
2017-07-03T00:58:27.667Z,5.75
2017-07-03T00:58:32.690Z,5.80
2017-07-03T00:58:37.704Z,5.63
2017-07-03T00:58:41.960Z,5.50
2017-07-03T00:58:46.202Z,5.55
2017-07-03T00:58:50.464Z,5.50
2017-07-03T00:58:54.691Z,5.60
2017-07-03T00:58:59.699Z,5.50
2017-07-03T00:59:03.927Z,5.60
2017-07-03T00:59:08.950Z,5.60
2017-07-03T00:59:13.950Z,5.60
2017-07-03T00:59:18.187Z,5.70
2017-07-03T00:59:22.428Z,5.60